Time;durP1;ratioP1;P1;durP2;ratioP2;P2;SDS_P1;SDS_P2;PMS_P1;PMS_P2;Temp;Humidity;BMP_temperature;BMP_pressure;BME280_temperature;BME280_humidity;BME280_pressure;Samples;Min_cycle;Max_cycle;Signal;HPM_P1;HPM_P2
2021/10/12 00:00:25;;;;;;;24.88;16.25;;;14.50;65.50;;;;;;5029364;28;20033;-65
2021/10/12 00:02:50;;;;;;;22.35;15.38;;;14.50;64.70;;;;;;5030932;28;20467;-65
2021/10/12 00:05:16;;;;;;;24.17;14.95;;;14.50;64.10;;;;;;5034049;28;20044;-65
2021/10/12 00:07:43;;;;;;;20.48;15.10;;;14.50;64.40;;;;;;5032668;28;20042;-65
2021/10/12 00:10:09;;;;;;;22.63;15.35;;;14.50;65.10;;;;;;5024521;28;20108;-65
2021/10/12 00:12:36;;;;;;;21.88;14.77;;;14.60;65.00;;;;;;5032228;28;20036;-64
2021/10/12 00:15:03;;;;;;;19.67;14.07;;;14.60;64.60;;;;;;5033620;28;20099;-64
2021/10/12 00:17:28;;;;;;;22.00;15.45;;;14.50;64.10;;;;;;5032486;28;20048;-65
2021/10/12 00:19:54;;;;;;;20.13;15.82;;;14.60;64.20;;;;;;5034098;28;20120;-65
2021/10/12 00:22:20;;;;;;;19.35;15.05;;;14.60;64.80;;;;;;5032407;28;20044;-64
2021/10/12 00:24:45;;;;;;;21.80;14.50;;;14.50;64.60;;;;;;5033919;28;20364;-64
2021/10/12 00:27:11;;;;;;;17.70;14.40;;;14.50;64.60;;;;;;5032212;28;20048;-64
2021/10/12 00:29:36;;;;;;;18.40;14.25;;;14.50;64.70;;;;;;5033488;28;20045;-64
2021/10/12 00:32:02;;;;;;;20.83;14.70;;;14.50;64.50;;;;;;5033205;28;20065;-64
2021/10/12 00:34:28;;;;;;;21.65;14.32;;;14.50;64.20;;;;;;5033864;28;20032;-64
2021/10/12 00:36:54;;;;;;;19.33;14.27;;;14.50;64.90;;;;;;5033277;28;20041;-64
2021/10/12 00:39:19;;;;;;;19.50;13.73;;;14.50;64.80;;;;;;5033883;28;20037;-64
2021/10/12 00:41:45;;;;;;;19.92;12.70;;;14.50;64.90;;;;;;5033490;28;20482;-64
2021/10/12 00:44:11;;;;;;;19.55;13.20;;;14.50;64.60;;;;;;5033306;28;20037;-64
2021/10/12 00:46:38;;;;;;;16.90;13.85;;;14.50;64.70;;;;;;5032474;28;20060;-64
2021/10/12 00:49:04;;;;;;;16.38;12.00;;;14.50;64.70;;;;;;5034190;28;20033;-64
2021/10/12 00:51:29;;;;;;;16.80;13.00;;;14.50;64.70;;;;;;5033055;28;20053;-64
2021/10/12 00:53:55;;;;;;;18.70;13.07;;;14.50;65.20;;;;;;5032656;28;20495;-64
2021/10/12 00:56:22;;;;;;;19.10;12.95;;;14.40;65.20;;;;;;5034456;28;20085;-66
2021/10/12 00:58:48;;;;;;;15.23;12.38;;;14.40;64.70;;;;;;5032201;28;20050;-64
2021/10/12 01:01:14;;;;;;;18.58;12.43;;;14.50;64.60;;;;;;5031871;28;20442;-64
2021/10/12 01:03:40;;;;;;;14.68;11.63;;;14.50;64.50;;;;;;5033096;28;20088;-64
2021/10/12 01:06:06;;;;;;;15.45;11.80;;;14.50;65.10;;;;;;5032572;28;20463;-64
2021/10/12 01:08:32;;;;;;;15.15;12.02;;;14.40;64.60;;;;;;5030501;28;20064;-64
2021/10/12 01:10:58;;;;;;;14.70;12.20;;;14.50;64.70;;;;;;5027643;28;20069;-64
2021/10/12 01:13:25;;;;;;;15.77;11.48;;;14.50;64.70;;;;;;5031228;28;20034;-64
2021/10/12 01:15:52;;;;;;;16.60;11.45;;;14.40;64.20;;;;;;5033219;28;20049;-64
2021/10/12 01:18:18;;;;;;;14.70;10.68;;;14.40;64.40;;;;;;5031897;28;20040;-64
2021/10/12 01:20:44;;;;;;;16.55;11.73;;;14.40;64.40;;;;;;5032921;28;20041;-64
2021/10/12 01:23:12;;;;;;;14.68;11.82;;;14.40;64.50;;;;;;5031882;28;20418;-65
2021/10/12 01:25:38;;;;;;;17.55;12.55;;;14.40;64.00;;;;;;5029513;28;20116;-64
2021/10/12 01:28:08;;;;;;;18.73;12.40;;;14.40;64.00;;;;;;5033108;28;20486;-65
2021/10/12 01:30:37;;;;;;;17.98;12.23;;;14.40;64.00;;;;;;5032961;28;20495;-64
2021/10/12 01:33:04;;;;;;;14.90;11.18;;;14.30;64.10;;;;;;5028209;28;20073;-65
2021/10/12 01:35:30;;;;;;;18.60;11.15;;;14.30;63.90;;;;;;5027421;28;20544;-65
2021/10/12 01:37:56;;;;;;;14.10;10.32;;;14.30;63.60;;;;;;5031856;28;20037;-64
2021/10/12 01:40:21;;;;;;;14.73;10.25;;;14.40;60.90;;;;;;5032814;28;20475;-65
2021/10/12 01:42:47;;;;;;;15.38;10.45;;;14.30;60.00;;;;;;5031341;28;20044;-65
2021/10/12 01:45:13;;;;;;;16.23;11.00;;;14.40;59.60;;;;;;5033521;28;20040;-65
2021/10/12 01:47:40;;;;;;;15.63;10.70;;;14.30;59.00;;;;;;5027447;28;20112;-65
2021/10/12 01:50:08;;;;;;;14.52;11.23;;;14.40;58.90;;;;;;5028882;28;20495;-65
2021/10/12 01:52:34;;;;;;;12.60;10.50;;;14.30;58.90;;;;;;5027718;28;20426;-65
2021/10/12 01:55:00;;;;;;;15.25;10.10;;;14.30;58.70;;;;;;5029982;28;20037;-65
2021/10/12 01:57:26;;;;;;;14.98;11.50;;;14.30;58.70;;;;;;5031454;28;20041;-65
2021/10/12 01:59:51;;;;;;;18.35;11.82;;;14.30;58.10;;;;;;5033533;28;20034;-65
2021/10/12 02:02:17;;;;;;;15.57;10.50;;;14.30;57.60;;;;;;5030726;28;20034;-65
2021/10/12 02:04:43;;;;;;;17.15;13.00;;;14.30;57.40;;;;;;5032531;28;20434;-66
2021/10/12 02:07:08;;;;;;;15.93;12.38;;;14.30;57.20;;;;;;5030649;28;20478;-65
2021/10/12 02:09:34;;;;;;;16.85;11.30;;;14.40;57.20;;;;;;5032103;28;20452;-65
2021/10/12 02:11:59;;;;;;;15.27;11.10;;;14.30;56.80;;;;;;5029753;28;20049;-65
2021/10/12 02:14:25;;;;;;;17.30;11.85;;;14.30;57.30;;;;;;5028089;28;20394;-65
2021/10/12 02:16:51;;;;;;;17.40;12.82;;;14.40;58.20;;;;;;5031001;28;20503;-65
2021/10/12 02:19:17;;;;;;;17.55;12.30;;;14.30;57.50;;;;;;5031613;28;20076;-65
2021/10/12 02:21:43;;;;;;;15.23;11.70;;;14.30;57.70;;;;;;5031364;28;20098;-65
2021/10/12 02:24:09;;;;;;;16.13;11.88;;;14.30;57.80;;;;;;5029294;28;20041;-65
2021/10/12 02:26:34;;;;;;;15.50;11.75;;;14.30;57.90;;;;;;5027070;28;20029;-65
2021/10/12 02:29:00;;;;;;;16.02;11.68;;;14.30;57.50;;;;;;5031475;28;20079;-65
2021/10/12 02:31:26;;;;;;;17.95;12.02;;;14.30;57.70;;;;;;5031329;28;20048;-65
2021/10/12 02:33:52;;;;;;;14.98;11.50;;;14.30;57.80;;;;;;5031589;28;20056;-65
2021/10/12 02:36:18;;;;;;;18.73;11.68;;;14.40;57.40;;;;;;5032053;28;20499;-65
2021/10/12 02:38:44;;;;;;;18.70;11.35;;;14.30;57.60;;;;;;5030518;28;20037;-65
2021/10/12 02:41:09;;;;;;;15.13;10.68;;;14.30;57.40;;;;;;5031908;28;20038;-65
2021/10/12 02:43:35;;;;;;;15.82;11.52;;;14.30;56.30;;;;;;5029889;28;20455;-65
2021/10/12 02:46:01;;;;;;;13.82;10.82;;;14.30;56.70;;;;;;5031127;28;20037;-65
2021/10/12 02:48:26;;;;;;;14.02;10.23;;;14.30;55.90;;;;;;5030618;28;20112;-65
2021/10/12 02:50:52;;;;;;;14.88;10.45;;;14.30;55.70;;;;;;5031567;28;20052;-65
2021/10/12 02:53:18;;;;;;;15.98;10.63;;;14.30;55.70;;;;;;5028330;28;20025;-65
2021/10/12 02:55:44;;;;;;;16.27;10.60;;;14.30;55.90;;;;;;5032006;28;20032;-65
2021/10/12 02:58:10;;;;;;;15.60;10.00;;;14.30;55.70;;;;;;5024543;28;20064;-65
2021/10/12 03:00:36;;;;;;;16.75;10.55;;;14.30;55.40;;;;;;5020685;28;20065;-65
2021/10/12 03:03:02;;;;;;;18.70;11.02;;;14.30;55.40;;;;;;5030658;28;20104;-65
2021/10/12 03:05:28;;;;;;;15.30;11.27;;;14.30;56.10;;;;;;5031815;28;20124;-65
2021/10/12 03:07:54;;;;;;;13.35;10.20;;;14.30;56.00;;;;;;5030346;28;20133;-64
2021/10/12 03:10:20;;;;;;;16.35;11.27;;;14.20;56.10;;;;;;5031750;28;20038;-65
2021/10/12 03:12:46;;;;;;;14.52;11.38;;;14.10;56.40;;;;;;5029658;28;20040;-64
2021/10/12 03:15:11;;;;;;;15.38;11.02;;;14.10;57.20;;;;;;5031839;28;20452;-64
2021/10/12 03:17:37;;;;;;;15.65;11.68;;;14.10;57.60;;;;;;5029865;28;20045;-65
2021/10/12 03:20:04;;;;;;;15.50;11.18;;;14.00;57.80;;;;;;5027225;28;20068;-64
2021/10/12 03:22:30;;;;;;;17.63;12.55;;;14.00;57.20;;;;;;5030420;28;20049;-65
2021/10/12 03:24:55;;;;;;;20.58;11.82;;;14.10;56.80;;;;;;5032148;28;20048;-64
2021/10/12 03:27:21;;;;;;;17.33;12.35;;;14.10;57.20;;;;;;5029960;28;20077;-65
2021/10/12 03:29:46;;;;;;;17.13;11.15;;;14.00;57.30;;;;;;5033129;28;20120;-64
2021/10/12 03:32:12;;;;;;;19.20;12.30;;;14.00;57.20;;;;;;5033796;28;20402;-64
2021/10/12 03:34:38;;;;;;;15.55;12.02;;;14.00;57.60;;;;;;5034628;28;20033;-64
2021/10/12 03:37:04;;;;;;;17.20;12.40;;;14.00;58.00;;;;;;5034776;28;20487;-65
2021/10/12 03:39:30;;;;;;;19.02;13.40;;;14.00;57.80;;;;;;5033405;28;20041;-65
2021/10/12 03:41:55;;;;;;;20.38;13.25;;;13.90;58.00;;;;;;5027534;28;22065;-65
2021/10/12 03:44:22;;;;;;;18.08;13.18;;;13.90;59.00;;;;;;5032138;28;20029;-65
2021/10/12 03:46:49;;;;;;;16.73;13.40;;;13.90;55.20;;;;;;5034696;28;20044;-64
2021/10/12 03:49:14;;;;;;;18.98;13.95;;;13.90;54.80;;;;;;5029170;28;20403;-65
2021/10/12 03:51:41;;;;;;;22.40;15.05;;;14.00;54.90;;;;;;5026863;28;20045;-64
2021/10/12 03:54:07;;;;;;;16.75;12.57;;;13.90;54.50;;;;;;5033844;28;20038;-65
2021/10/12 03:56:33;;;;;;;21.40;14.13;;;14.00;54.70;;;;;;5034823;28;20045;-65
2021/10/12 03:58:58;;;;;;;21.85;14.07;;;13.90;54.70;;;;;;5033786;28;20033;-64
2021/10/12 04:01:24;;;;;;;17.50;13.73;;;14.00;54.40;;;;;;5034381;28;20091;-65
2021/10/12 04:03:51;;;;;;;19.52;14.05;;;13.90;54.20;;;;;;5033547;28;20079;-65
2021/10/12 04:06:17;;;;;;;18.02;14.25;;;13.90;54.60;;;;;;5034056;28;20045;-64
2021/10/12 04:08:42;;;;;;;18.35;14.50;;;13.90;54.50;;;;;;5032119;28;20544;-64
2021/10/12 04:11:09;;;;;;;22.88;13.95;;;13.90;54.50;;;;;;5032925;28;20045;-65
2021/10/12 04:13:34;;;;;;;21.77;14.55;;;13.90;54.50;;;;;;5032917;28;20505;-65
2021/10/12 04:16:00;;;;;;;20.60;14.60;;;13.80;54.50;;;;;;5034041;28;20045;-64
2021/10/12 04:18:26;;;;;;;19.92;13.73;;;13.80;54.70;;;;;;5015495;28;20029;-65
2021/10/12 04:20:51;;;;;;;20.40;13.88;;;13.80;55.00;;;;;;5032392;28;20542;-64
2021/10/12 04:23:17;;;;;;;19.77;14.60;;;13.80;54.90;;;;;;5033022;28;20034;-65
2021/10/12 04:25:43;;;;;;;23.38;15.23;;;13.80;55.20;;;;;;5034600;28;20042;-65
2021/10/12 04:28:13;;;;;;;23.63;15.05;;;13.60;55.40;;;;;;5032634;28;20088;-65
2021/10/12 04:30:41;;;;;;;24.13;16.13;;;13.60;55.70;;;;;;5033106;28;20080;-65
2021/10/12 04:33:06;;;;;;;23.00;15.15;;;13.70;55.70;;;;;;5035411;28;20406;-65
2021/10/12 04:35:32;;;;;;;20.98;16.17;;;13.50;56.60;;;;;;5034120;28;20041;-65
2021/10/12 04:37:58;;;;;;;28.58;15.80;;;13.60;58.00;;;;;;5032680;28;20057;-65
2021/10/12 04:40:25;;;;;;;21.83;15.02;;;13.60;58.90;;;;;;5033555;28;20455;-65
2021/10/12 04:42:51;;;;;;;23.15;15.07;;;13.60;58.70;;;;;;5032294;28;20037;-65
2021/10/12 04:45:17;;;;;;;21.15;15.85;;;13.70;58.60;;;;;;5033499;28;20033;-65
2021/10/12 04:47:43;;;;;;;18.70;14.98;;;13.70;58.30;;;;;;5032474;28;20092;-65
2021/10/12 04:50:09;;;;;;;24.40;14.98;;;13.70;58.60;;;;;;5029580;28;20136;-65
2021/10/12 04:52:35;;;;;;;21.85;14.52;;;13.60;58.70;;;;;;5033379;28;20124;-65
2021/10/12 04:55:01;;;;;;;21.27;14.63;;;13.60;58.70;;;;;;5032466;28;20030;-65
2021/10/12 04:57:27;;;;;;;23.35;15.80;;;13.70;58.90;;;;;;5033846;28;20448;-64
2021/10/12 04:59:52;;;;;;;22.17;15.75;;;13.70;58.90;;;;;;5032803;28;20120;-65
2021/10/12 05:02:19;;;;;;;22.33;14.63;;;13.60;58.40;;;;;;5032704;28;20128;-64
2021/10/12 05:04:45;;;;;;;24.30;14.85;;;13.60;58.90;;;;;;5031909;28;20064;-65
2021/10/12 05:07:11;;;;;;;21.17;14.77;;;13.60;59.10;;;;;;5022974;28;20037;-65
2021/10/12 05:09:37;;;;;;;21.88;14.88;;;13.60;59.30;;;;;;5032278;28;20045;-65
2021/10/12 05:12:02;;;;;;;19.17;14.30;;;13.70;59.40;;;;;;5029251;28;20041;-65
2021/10/12 05:14:30;;;;;;;19.92;14.60;;;13.60;59.20;;;;;;5030377;28;20125;-65
2021/10/12 05:16:59;;;;;;;22.35;13.93;;;13.60;59.40;;;;;;5032711;28;20056;-65
2021/10/12 05:19:25;;;;;;;22.80;15.00;;;13.60;59.50;;;;;;5027604;28;20598;-65
2021/10/12 05:21:50;;;;;;;21.05;14.48;;;13.60;59.90;;;;;;5031450;28;20038;-65
2021/10/12 05:24:16;;;;;;;21.98;15.20;;;13.60;59.60;;;;;;5032160;28;20418;-65
2021/10/12 05:26:41;;;;;;;23.13;15.23;;;13.60;59.70;;;;;;5033271;28;20116;-65
2021/10/12 05:29:10;;;;;;;21.48;15.43;;;13.60;59.70;;;;;;5013672;28;20029;-64
2021/10/12 05:31:36;;;;;;;22.90;13.57;;;13.60;60.10;;;;;;5033130;28;20410;-65
2021/10/12 05:34:02;;;;;;;21.02;14.77;;;13.60;60.10;;;;;;5031627;28;20120;-65
2021/10/12 05:36:27;;;;;;;25.20;15.00;;;13.60;60.40;;;;;;5032598;28;20490;-65
2021/10/12 05:38:53;;;;;;;21.50;14.15;;;13.60;60.60;;;;;;5014192;28;20135;-64
2021/10/12 05:41:18;;;;;;;22.80;14.90;;;13.60;61.00;;;;;;5034664;28;20497;-65
2021/10/12 05:43:46;;;;;;;22.58;14.48;;;13.60;61.10;;;;;;5032707;28;20033;-64
2021/10/12 05:46:12;;;;;;;19.60;13.75;;;13.60;61.10;;;;;;5032087;28;20084;-65
2021/10/12 05:48:38;;;;;;;19.65;14.25;;;13.50;61.50;;;;;;5031776;28;20072;-65
2021/10/12 05:51:04;;;;;;;22.85;14.57;;;13.50;60.80;;;;;;5030239;28;20053;-64
2021/10/12 05:56:08;;;;;;;26.35;15.15;;;13.50;62.20;;;;;;5033023;28;20033;-64
2021/10/12 06:01:08;;;;;;;26.40;15.43;;;13.40;65.00;;;;;;5032851;28;20459;-65
2021/10/12 06:03:38;;;;;;;21.52;15.52;;;13.50;64.50;;;;;;5029690;28;20029;-64
2021/10/12 06:06:03;;;;;;;22.02;15.23;;;13.40;65.80;;;;;;5031128;28;20045;-64
2021/10/12 06:08:30;;;;;;;22.83;14.88;;;13.50;65.70;;;;;;5028530;28;20108;-65
2021/10/12 06:11:04;;;;;;;19.50;15.30;;;13.50;65.70;;;;;;5030987;28;20049;-65
2021/10/12 06:13:31;;;;;;;25.08;16.33;;;13.40;65.90;;;;;;5030150;28;20099;-65
2021/10/12 06:15:58;;;;;;;25.00;15.65;;;13.40;65.90;;;;;;5029854;28;20096;-65
2021/10/12 06:18:24;;;;;;;20.17;14.55;;;13.50;65.70;;;;;;5033012;28;20035;-65
2021/10/12 06:20:50;;;;;;;26.63;16.35;;;13.50;65.50;;;;;;5031266;28;20037;-65
2021/10/12 06:23:16;;;;;;;20.88;14.82;;;13.40;65.10;;;;;;5030529;28;20042;-66
2021/10/12 06:25:43;;;;;;;20.13;14.68;;;13.50;65.00;;;;;;5032059;28;20029;-65
2021/10/12 06:28:11;;;;;;;21.95;14.10;;;13.60;64.90;;;;;;5030556;28;20056;-65
2021/10/12 06:30:37;;;;;;;17.45;12.32;;;13.50;64.10;;;;;;5030653;28;20076;-65
2021/10/12 06:33:03;;;;;;;27.33;11.95;;;13.60;62.60;;;;;;5030166;28;20041;-65
2021/10/12 06:35:30;;;;;;;21.63;12.23;;;13.70;63.10;;;;;;5030928;28;20025;-65
2021/10/12 06:37:57;;;;;;;14.82;11.35;;;13.70;62.40;;;;;;5031701;28;20065;-65
2021/10/12 06:40:23;;;;;;;16.33;10.80;;;13.80;61.20;;;;;;5031455;28;20479;-65
2021/10/12 06:42:48;;;;;;;16.35;11.00;;;13.90;60.20;;;;;;5027168;28;20112;-66
2021/10/12 06:45:16;;;;;;;18.75;11.02;;;14.00;60.10;;;;;;5035032;28;20073;-65
2021/10/12 06:47:45;;;;;;;19.10;10.70;;;14.00;59.40;;;;;;5012939;28;20438;-66
2021/10/12 06:50:10;;;;;;;15.80;10.25;;;14.10;59.00;;;;;;5023760;28;20057;-66
2021/10/12 06:52:36;;;;;;;15.55;9.75;;;14.00;58.50;;;;;;5014518;28;20064;-65
2021/10/12 06:55:03;;;;;;;13.77;10.73;;;14.00;57.80;;;;;;5031581;28;20065;-65
2021/10/12 06:57:28;;;;;;;18.77;10.52;;;14.10;57.70;;;;;;5031801;28;20034;-65
2021/10/12 06:59:54;;;;;;;13.38;9.32;;;14.20;57.90;;;;;;5028879;28;20036;-66
2021/10/12 07:02:19;;;;;;;18.08;10.68;;;14.20;58.00;;;;;;5012922;28;20033;-65
2021/10/12 07:04:45;;;;;;;14.88;9.77;;;14.20;57.20;;;;;;5035103;28;20386;-66
2021/10/12 07:07:11;;;;;;;15.57;9.98;;;14.30;56.80;;;;;;5035059;28;20037;-66
2021/10/12 07:09:36;;;;;;;15.57;10.35;;;14.20;56.90;;;;;;5034094;28;20041;-65
2021/10/12 07:12:02;;;;;;;14.80;10.43;;;14.30;56.20;;;;;;5032775;28;20034;-66
2021/10/12 07:14:28;;;;;;;15.18;10.90;;;14.40;56.40;;;;;;5033287;28;20037;-66
2021/10/12 07:16:54;;;;;;;16.15;11.32;;;14.40;55.70;;;;;;5032724;28;20372;-65
2021/10/12 07:19:20;;;;;;;13.88;11.02;;;14.50;55.50;;;;;;5032875;28;20057;-66
2021/10/12 07:21:46;;;;;;;18.65;11.95;;;14.40;55.80;;;;;;5035258;28;20368;-66
2021/10/12 07:24:12;;;;;;;14.80;10.18;;;14.40;55.50;;;;;;5032204;28;20432;-66
2021/10/12 07:26:38;;;;;;;16.98;11.45;;;14.40;55.60;;;;;;5035774;28;20048;-66
2021/10/12 07:29:05;;;;;;;21.73;12.00;;;14.40;55.70;;;;;;5032343;28;20038;-66
2021/10/12 07:31:31;;;;;;;17.02;11.10;;;14.40;56.00;;;;;;5034337;28;20049;-66
2021/10/12 07:33:57;;;;;;;25.65;12.40;;;14.40;55.30;;;;;;5031351;28;20123;-66
2021/10/12 07:36:23;;;;;;;27.35;13.02;;;14.30;55.70;;;;;;5035644;28;20068;-66
2021/10/12 07:38:49;;;;;;;23.40;11.80;;;14.40;55.70;;;;;;5034522;28;20107;-65
2021/10/12 07:41:14;;;;;;;18.67;12.00;;;14.40;55.50;;;;;;5034638;28;20195;-66
2021/10/12 07:43:40;;;;;;;20.67;11.65;;;14.50;55.60;;;;;;5027535;28;20049;-65
2021/10/12 07:46:06;;;;;;;18.05;10.23;;;14.60;55.10;;;;;;5034196;28;20037;-66
2021/10/12 07:48:32;;;;;;;17.48;11.15;;;14.60;53.10;;;;;;5032893;28;20038;-65
2021/10/12 07:50:58;;;;;;;17.02;9.98;;;14.60;54.10;;;;;;5035003;28;20057;-66
2021/10/12 07:53:23;;;;;;;20.38;10.77;;;14.70;53.50;;;;;;5017331;28;20566;-66
2021/10/12 07:55:53;;;;;;;18.63;10.23;;;14.70;53.00;;;;;;5034094;28;20116;-66
2021/10/12 07:58:18;;;;;;;15.25;9.07;;;15.00;52.70;;;;;;5034706;28;20037;-66
2021/10/12 08:00:44;;;;;;;14.38;10.10;;;15.00;51.90;;;;;;5033615;28;20059;-66
2021/10/12 08:03:10;;;;;;;17.48;9.27;;;15.10;52.40;;;;;;5035176;28;20441;-66
2021/10/12 08:05:37;;;;;;;17.05;10.55;;;14.90;51.50;;;;;;5033134;28;20420;-66
2021/10/12 08:08:03;;;;;;;18.00;10.60;;;14.80;51.80;;;;;;5034807;28;20360;-66
2021/10/12 08:10:29;;;;;;;20.00;10.00;;;14.90;52.50;;;;;;5034615;28;20041;-66
2021/10/12 08:13:01;;;;;;;13.00;8.82;;;14.90;52.10;;;;;;5035102;28;20037;-66
2021/10/12 08:15:27;;;;;;;20.08;9.27;;;15.10;51.80;;;;;;5032158;28;20240;-66
2021/10/12 08:17:53;;;;;;;16.92;10.07;;;15.10;51.50;;;;;;5030383;28;20148;-66
2021/10/12 08:20:18;;;;;;;12.38;9.23;;;15.10;50.90;;;;;;5028047;28;20064;-65
2021/10/12 08:22:44;;;;;;;14.02;9.43;;;15.20;50.90;;;;;;5034502;28;20040;-66
2021/10/12 08:25:11;;;;;;;17.05;10.02;;;15.20;50.40;;;;;;5032320;28;20045;-66
2021/10/12 08:27:38;;;;;;;16.08;8.85;;;15.20;50.20;;;;;;5033832;28;20034;-65
2021/10/12 08:30:05;;;;;;;17.95;10.43;;;15.30;50.00;;;;;;5034152;28;20419;-65
2021/10/12 08:32:31;;;;;;;14.07;9.57;;;15.30;50.10;;;;;;5032169;28;20037;-66
2021/10/12 08:34:57;;;;;;;13.00;9.40;;;15.30;50.40;;;;;;5032568;28;20121;-66
2021/10/12 08:37:22;;;;;;;13.88;10.18;;;15.30;50.60;;;;;;5014960;28;20475;-66
2021/10/12 08:39:48;;;;;;;13.02;9.48;;;15.30;50.40;;;;;;5013603;28;20041;-66
2021/10/12 08:42:30;;;;;;;16.60;10.57;;;15.20;50.90;;;;;;5034619;28;20037;-65
2021/10/12 08:45:03;;;;;;;13.32;10.43;;;15.30;50.80;;;;;;5031065;28;20045;-66
2021/10/12 08:47:30;;;;;;;13.77;10.07;;;15.30;50.90;;;;;;5014005;28;20441;-66
2021/10/12 08:49:57;;;;;;;13.77;10.80;;;15.20;51.10;;;;;;5031085;28;20083;-66
2021/10/12 08:52:23;;;;;;;20.65;12.57;;;15.30;51.30;;;;;;5005340;28;20494;-65
2021/10/12 08:54:50;;;;;;;18.67;12.93;;;15.30;51.60;;;;;;5032161;28;20041;-65
2021/10/12 08:57:32;;;;;;;17.90;12.88;;;15.30;50.90;;;;;;5033112;28;20076;-66
2021/10/12 09:00:03;;;;;;;22.30;11.98;;;15.30;50.20;;;;;;5030383;28;20044;-66
2021/10/12 09:02:29;;;;;;;16.90;12.50;;;15.30;50.10;;;;;;5034490;28;20037;-66
2021/10/12 09:04:55;;;;;;;16.23;12.40;;;15.40;51.00;;;;;;5015256;28;20120;-66
2021/10/12 09:07:27;;;;;;;18.17;13.63;;;15.40;50.80;;;;;;5013565;28;21049;-66
2021/10/12 09:09:56;;;;;;;17.30;12.63;;;15.30;50.20;;;;;;5031999;28;20044;-66
2021/10/12 09:12:45;;;;;;;22.85;14.70;;;15.40;50.20;;;;;;5030999;28;20045;-66
2021/10/12 09:15:11;;;;;;;22.10;13.32;;;15.40;49.60;;;;;;5015541;28;20526;-66
2021/10/12 09:17:41;;;;;;;20.65;13.45;;;15.40;49.80;;;;;;5032769;28;20038;-66
2021/10/12 09:20:12;;;;;;;21.27;14.48;;;15.40;49.80;;;;;;5032290;28;20025;-66
2021/10/12 09:22:39;;;;;;;19.65;14.35;;;15.40;49.40;;;;;;5031903;28;20044;-66
2021/10/12 09:25:10;;;;;;;18.30;13.60;;;15.40;49.70;;;;;;5013085;28;20033;-66
2021/10/12 09:27:56;;;;;;;25.42;14.45;;;15.50;50.10;;;;;;5027978;28;20495;-66
2021/10/12 09:30:33;;;;;;;16.05;13.32;;;15.60;49.50;;;;;;5015959;28;20073;-67
2021/10/12 09:33:08;;;;;;;19.90;13.30;;;15.50;48.70;;;;;;5015174;28;20398;-66
2021/10/12 09:35:34;;;;;;;21.15;13.85;;;15.50;49.30;;;;;;5032318;28;20148;-66
2021/10/12 09:38:11;;;;;;;20.23;14.63;;;15.70;49.70;;;;;;5015782;28;20041;-66
2021/10/12 09:40:39;;;;;;;26.08;15.73;;;15.80;48.60;;;;;;5026903;28;20025;-66
2021/10/12 09:43:06;;;;;;;22.88;15.18;;;15.90;49.10;;;;;;5033938;28;20091;-66
2021/10/12 09:45:42;;;;;;;18.55;14.23;;;16.00;48.60;;;;;;5028578;28;20105;-66
2021/10/12 09:48:27;;;;;;;20.85;13.23;;;16.10;48.10;;;;;;5028697;28;20045;-67
2021/10/12 09:51:05;;;;;;;;;;;16.30;44.60;;;;;;5033279;28;20053;-67
2021/10/12 09:53:31;;;;;;;18.95;12.90;;;16.40;42.70;;;;;;5033075;28;19916;-67
2021/10/12 09:55:58;;;;;;;17.52;13.15;;;16.80;49.90;;;;;;5032009;28;20124;-67
2021/10/12 09:58:25;;;;;;;20.15;13.50;;;17.00;55.80;;;;;;5012268;28;20048;-67
2021/10/12 10:00:52;;;;;;;20.65;13.10;;;17.30;51.20;;;;;;5031715;28;22070;-67
2021/10/12 10:03:18;;;;;;;22.75;14.57;;;17.40;57.70;;;;;;5033112;28;20485;-67
2021/10/12 10:05:44;;;;;;;19.60;14.23;;;17.40;57.70;;;;;;5032389;28;20471;-65
2021/10/12 10:08:10;;;;;;;19.85;13.65;;;17.40;57.30;;;;;;5030358;28;20029;-65
2021/10/12 10:10:36;;;;;;;17.02;13.65;;;17.40;58.50;;;;;;5031357;28;20033;-66
2021/10/12 10:13:02;;;;;;;18.63;13.30;;;17.50;57.20;;;;;;5027704;28;20103;-66
2021/10/12 10:15:28;;;;;;;17.65;12.40;;;17.50;57.60;;;;;;5024462;28;20046;-66
2021/10/12 10:17:56;;;;;;;23.98;13.95;;;17.50;60.30;;;;;;5028895;28;20052;-66
2021/10/12 10:20:22;;;;;;;17.23;13.70;;;17.50;57.40;;;;;;5030693;28;20561;-66
2021/10/12 10:22:48;;;;;;;23.08;14.70;;;17.60;56.70;;;;;;5031374;28;20065;-66
2021/10/12 10:25:34;;;;;;;18.80;14.70;;;17.60;56.20;;;;;;5030621;28;20025;-66
2021/10/12 10:28:18;;;;;;;20.58;15.38;;;17.60;55.70;;;;;;5030004;28;20068;-66
2021/10/12 10:30:48;;;;;;;24.42;14.88;;;17.70;56.50;;;;;;5031267;28;20080;-66
2021/10/12 10:33:27;;;;;;;19.45;14.38;;;17.70;57.40;;;;;;5029473;28;20041;-66
2021/10/12 10:36:03;;;;;;;22.42;15.82;;;17.40;56.50;;;;;;5030193;28;20624;-66
2021/10/12 10:38:29;;;;;;;23.75;15.20;;;17.30;57.20;;;;;;5032070;28;20152;-66
2021/10/12 10:41:04;;;;;;;20.55;14.30;;;17.10;58.30;;;;;;5030708;28;20112;-66
2021/10/12 10:43:48;;;;;;;15.95;12.23;;;17.10;58.30;;;;;;5031435;28;20033;-66
2021/10/12 10:46:35;;;;;;;19.13;13.15;;;17.10;57.00;;;;;;5030806;28;20371;-66
2021/10/12 10:49:20;;;;;;;20.10;14.32;;;17.00;57.40;;;;;;5025682;28;20120;-66
2021/10/12 10:52:04;;;;;;;16.38;12.88;;;17.10;58.10;;;;;;5031240;28;20100;-66
2021/10/12 10:54:40;;;;;;;20.48;13.68;;;17.10;57.60;;;;;;5028381;28;20037;-66
2021/10/12 10:57:15;;;;;;;16.80;13.13;;;17.10;58.80;;;;;;5030843;28;20042;-67
2021/10/12 10:59:40;;;;;;;16.65;13.13;;;17.10;58.90;;;;;;5030324;28;20116;-66
2021/10/12 11:02:25;;;;;;;22.13;12.40;;;17.10;59.20;;;;;;5031889;28;20590;-67
2021/10/12 11:04:51;;;;;;;17.52;12.80;;;17.10;58.30;;;;;;5030872;28;20386;-66
2021/10/12 11:07:24;;;;;;;19.02;12.55;;;17.20;58.70;;;;;;5030326;28;20061;-67
2021/10/12 11:09:51;;;;;;;18.13;13.25;;;17.20;59.20;;;;;;5028182;28;20029;-66
2021/10/12 11:12:19;;;;;;;19.13;14.43;;;17.30;59.20;;;;;;5031841;28;20091;-66
2021/10/12 11:14:45;;;;;;;23.00;16.92;;;17.20;59.40;;;;;;5029867;28;20688;-66
2021/10/12 11:17:11;;;;;;;22.08;16.60;;;17.30;58.60;;;;;;5032104;28;20054;-66
2021/10/12 11:19:59;;;;;;;17.42;14.48;;;17.30;59.20;;;;;;5030202;28;20117;-66
2021/10/12 11:22:26;;;;;;;19.88;15.10;;;17.40;58.90;;;;;;5032240;28;20049;-66
2021/10/12 11:24:52;;;;;;;19.85;15.27;;;17.50;58.10;;;;;;5031368;28;20116;-66
2021/10/12 11:27:18;;;;;;;19.02;15.95;;;17.60;57.60;;;;;;5032138;28;20116;-66
2021/10/12 11:29:44;;;;;;;19.83;16.08;;;17.60;57.20;;;;;;5013162;28;20164;-67
2021/10/12 11:32:10;;;;;;;23.55;15.70;;;17.60;57.00;;;;;;5031752;28;20096;-67
2021/10/12 11:34:36;;;;;;;22.92;14.73;;;17.70;55.70;;;;;;5030962;28;20057;-67
2021/10/12 11:37:06;;;;;;;20.27;14.80;;;17.80;56.40;;;;;;5030758;28;20088;-66
2021/10/12 11:39:33;;;;;;;20.27;16.17;;;17.70;55.60;;;;;;5030204;28;20117;-67
2021/10/12 11:42:04;;;;;;;19.55;16.20;;;17.80;56.40;;;;;;5031673;28;20030;-67
2021/10/12 11:44:30;;;;;;;20.30;16.35;;;17.80;56.30;;;;;;5027813;28;20041;-67
2021/10/12 11:47:02;;;;;;;18.63;16.08;;;18.00;56.70;;;;;;5023491;28;20067;-66
2021/10/12 11:49:28;;;;;;;24.05;15.45;;;18.00;56.50;;;;;;5029700;28;20030;-67
2021/10/12 11:51:54;;;;;;;22.13;16.35;;;18.00;57.30;;;;;;5033762;28;20045;-67
2021/10/12 11:54:26;;;;;;;19.80;16.30;;;18.00;57.30;;;;;;5033169;28;20080;-66
2021/10/12 11:56:52;;;;;;;23.30;17.20;;;18.00;57.50;;;;;;5034774;28;20040;-66
2021/10/12 11:59:18;;;;;;;21.98;16.40;;;18.10;58.30;;;;;;5016992;28;20368;-67
2021/10/12 12:01:45;;;;;;;22.67;16.77;;;18.20;58.90;;;;;;5032377;28;20116;-67
2021/10/12 12:04:11;;;;;;;23.30;17.50;;;;;;;;;;5030559;28;20434;-67
2021/10/12 12:06:43;;;;;;;24.58;17.65;;;;;;;;;;5033720;28;20034;-67
2021/10/12 12:09:20;;;;;;;22.25;16.13;;;;;;;;;;5034902;28;20038;-67
2021/10/12 12:11:47;;;;;;;22.67;17.55;;;;;;;;;;5031329;28;20049;-67
2021/10/12 12:14:13;;;;;;;23.33;16.92;;;;;;;;;;5034770;28;20499;-67
2021/10/12 12:16:39;;;;;;;26.13;18.10;;;;;;;;;;5033094;28;20079;-66
2021/10/12 12:19:22;;;;;;;20.58;17.00;;;;;;;;;;5015193;28;20479;-66
2021/10/12 12:21:48;;;;;;;20.98;17.27;;;;;;;;;;5032982;28;20360;-66
2021/10/12 12:24:21;;;;;;;20.98;16.10;;;;;;;;;;5033863;28;20049;-67
2021/10/12 12:26:47;;;;;;;27.30;17.90;;;;;;;;;;5032459;28;20050;-67
2021/10/12 12:29:15;;;;;;;20.80;15.85;;;;;;;;;;5028489;28;20087;-67
2021/10/12 12:31:46;;;;;;;23.40;18.42;;;;;;;;;;5029837;28;20050;-67
2021/10/12 12:34:12;;;;;;;26.48;16.92;;;;;;;;;;5033202;28;20400;-68
2021/10/12 12:36:38;;;;;;;20.73;17.02;;;;;;;;;;5032187;28;20057;-67
2021/10/12 12:39:08;;;;;;;25.00;19.13;;;;;;;;;;5034035;28;20132;-67